createdAt,value
2023-05-02T00:00:16.159Z,10.49
2023-05-02T00:05:08.370Z,10.57
2023-05-02T00:10:03.096Z,10.13
2023-05-02T00:14:55.015Z,10.44
2023-05-02T00:19:47.151Z,10.36
2023-05-02T00:24:38.956Z,9.62
2023-05-02T00:29:31.193Z,10.79
2023-05-02T00:34:23.041Z,10.65
2023-05-02T00:39:14.806Z,9.24
2023-05-02T00:44:06.704Z,9.01
2023-05-02T00:48:58.467Z,9.05
2023-05-02T00:53:50.991Z,7.57
2023-05-02T00:58:44.083Z,10.30
2023-05-02T01:03:51.385Z,9.92
2023-05-02T01:09:24.654Z,11.08
2023-05-02T01:14:18.176Z,10.47
2023-05-02T01:19:20.026Z,10.89
2023-05-02T01:24:25.143Z,10.12
2023-05-02T01:29:20.817Z,10.95
2023-05-02T01:34:12.831Z,10.77
2023-05-02T01:39:09.424Z,10.70
2023-05-02T01:44:03.406Z,10.78
2023-05-02T01:48:57.316Z,10.65
2023-05-02T01:53:50.411Z,9.27
2023-05-02T01:58:42.959Z,10.54
2023-05-02T02:03:34.613Z,8.44
2023-05-02T02:08:26.696Z,9.55
2023-05-02T02:13:32.262Z,10.96
2023-05-02T02:18:27.708Z,9.89
2023-05-02T02:23:22.269Z,9.64
2023-05-02T02:28:14.004Z,10.88
2023-05-02T02:33:06.374Z,11.26
2023-05-02T02:38:29.265Z,11.28
2023-05-02T02:43:26.150Z,10.70
2023-05-02T02:48:46.076Z,11.20
2023-05-02T02:54:01.133Z,11.17
2023-05-02T02:59:04.049Z,11.02
2023-05-02T03:03:57.375Z,10.61
2023-05-02T03:08:49.127Z,9.99
2023-05-02T03:13:44.456Z,11.38
2023-05-02T03:18:40.973Z,10.45
2023-05-02T03:23:33.324Z,11.65
2023-05-02T03:28:25.087Z,9.98
2023-05-02T03:33:18.046Z,11.72
2023-05-02T03:38:11.693Z,11.35
2023-05-02T03:43:03.809Z,11.27
2023-05-02T03:47:57.928Z,11.75
2023-05-02T03:52:50.562Z,11.96
2023-05-02T03:57:47.292Z,11.75
2023-05-02T04:02:39.342Z,11.01
2023-05-02T04:07:35.679Z,11.09
2023-05-02T04:12:29.992Z,11.36
2023-05-02T04:17:21.869Z,11.06
2023-05-02T04:22:14.970Z,10.33
2023-05-02T04:27:14.492Z,11.98
2023-05-02T04:32:07.787Z,11.10
2023-05-02T04:37:01.555Z,8.90
2023-05-02T04:41:53.708Z,10.92
2023-05-02T04:46:47.709Z,10.04
2023-05-02T04:51:39.536Z,10.97
2023-05-02T04:56:32.112Z,11.38
2023-05-02T05:01:24.996Z,9.84
2023-05-02T05:06:17.021Z,11.29
2023-05-02T05:11:10.136Z,12.32
2023-05-02T05:16:02.939Z,12.45
2023-05-02T05:20:57.595Z,10.12
2023-05-02T05:25:49.393Z,10.59
2023-05-02T05:30:42.676Z,10.92
2023-05-02T05:35:37.518Z,10.68
2023-05-02T05:40:29.384Z,10.70
2023-05-02T05:45:23.335Z,11.02
2023-05-02T05:50:15.188Z,11.10
2023-05-02T05:55:08.147Z,12.09
2023-05-02T06:00:00.649Z,11.48
2023-05-02T06:04:53.046Z,10.44
2023-05-02T06:09:48.380Z,10.41
2023-05-02T06:14:41.428Z,8.61
2023-05-02T06:19:34.231Z,10.66
2023-05-02T06:24:26.281Z,11.00
2023-05-02T06:29:18.018Z,10.85
2023-05-02T06:34:09.785Z,11.41
2023-05-02T06:39:01.564Z,10.73
2023-05-02T06:43:53.382Z,11.84
2023-05-02T06:48:45.329Z,12.31
2023-05-02T06:53:37.003Z,9.89
2023-05-02T06:58:30.290Z,12.03
2023-05-02T07:03:22.233Z,12.89
2023-05-02T07:08:13.981Z,11.85
2023-05-02T07:13:05.769Z,12.93
2023-05-02T07:17:57.477Z,11.89
2023-05-02T07:22:49.684Z,10.85
2023-05-02T07:27:41.591Z,12.51
2023-05-02T07:32:33.431Z,11.28
2023-05-02T07:37:25.233Z,11.33
2023-05-02T07:42:17.022Z,10.56
2023-05-02T07:47:09.238Z,10.84
2023-05-02T07:52:01.111Z,12.15
2023-05-02T07:56:52.887Z,12.08
2023-05-02T08:01:45.097Z,12.50
2023-05-02T08:06:37.210Z,12.40
2023-05-02T08:11:28.994Z,12.25
2023-05-02T08:16:20.998Z,12.89
2023-05-02T08:21:12.768Z,11.42
2023-05-02T08:26:05.139Z,13.18
2023-05-02T08:30:58.753Z,12.49
2023-05-02T08:35:50.522Z,12.81
2023-05-02T08:40:43.406Z,13.96
2023-05-02T08:45:39.853Z,13.72
2023-05-02T08:50:31.792Z,12.63
2023-05-02T08:55:27.906Z,13.76
2023-05-02T09:00:19.786Z,13.48
2023-05-02T09:05:12.248Z,13.40
2023-05-02T09:10:05.132Z,14.20
2023-05-02T09:15:16.848Z,15.76
2023-05-02T09:20:12.082Z,13.28
2023-05-02T09:25:05.877Z,12.56
2023-05-02T09:30:25.223Z,13.77
2023-05-02T09:35:26.891Z,14.24
2023-05-02T09:40:19.497Z,11.95
2023-05-02T09:45:26.353Z,14.42
2023-05-02T09:50:38.003Z,15.89
2023-05-02T09:55:30.600Z,14.32
2023-05-02T10:00:22.360Z,14.79
2023-05-02T10:05:14.318Z,14.27
2023-05-02T10:10:08.515Z,13.61
2023-05-02T10:15:04.196Z,14.92
2023-05-02T10:20:07.239Z,14.18
2023-05-02T10:25:00.748Z,15.86
2023-05-02T10:29:54.552Z,14.30
2023-05-02T10:34:47.741Z,14.13
2023-05-02T10:39:39.641Z,14.59
2023-05-02T10:44:40.237Z,14.37
2023-05-02T10:49:32.055Z,14.60
2023-05-02T10:54:24.844Z,15.71
2023-05-02T10:59:35.190Z,16.40
2023-05-02T11:05:00.543Z,15.12
2023-05-02T11:09:52.486Z,13.26
2023-05-02T11:14:47.668Z,14.96
2023-05-02T11:19:45.482Z,16.17
2023-05-02T11:24:41.523Z,15.95
2023-05-02T11:29:53.552Z,15.33
2023-05-02T11:34:45.763Z,15.47
2023-05-02T11:39:37.517Z,16.38
2023-05-02T11:44:29.272Z,16.39
2023-05-02T11:49:21.167Z,15.58
2023-05-02T11:54:20.708Z,16.32
2023-05-02T11:59:12.483Z,17.38
2023-05-02T12:04:07.031Z,18.55
2023-05-02T12:09:09.966Z,17.93
2023-05-02T12:14:02.492Z,18.92
2023-05-02T12:18:56.815Z,17.57
2023-05-02T12:23:48.860Z,17.22
2023-05-02T12:28:57.167Z,16.66
2023-05-02T12:33:50.907Z,16.64
2023-05-02T12:38:51.180Z,15.42
2023-05-02T12:43:51.146Z,15.75
2023-05-02T12:48:44.851Z,17.55
2023-05-02T12:53:44.401Z,16.47
2023-05-02T12:58:47.361Z,16.53
2023-05-02T13:03:39.437Z,17.55
2023-05-02T13:08:33.138Z,18.10
2023-05-02T13:13:24.867Z,16.97
2023-05-02T13:18:16.678Z,17.37
2023-05-02T13:23:08.535Z,17.25
2023-05-02T13:28:00.407Z,16.36
2023-05-02T13:32:52.591Z,16.09
2023-05-02T13:37:44.582Z,16.96
2023-05-02T13:42:36.658Z,15.98
2023-05-02T13:47:28.765Z,16.24
2023-05-02T13:52:20.624Z,15.44
2023-05-02T13:57:12.666Z,15.72
2023-05-02T14:02:04.646Z,14.97
2023-05-02T14:06:56.582Z,15.38
2023-05-02T14:11:49.126Z,15.65
2023-05-02T14:16:41.346Z,16.45
2023-05-02T14:21:33.165Z,16.23
2023-05-02T14:26:24.969Z,15.58
2023-05-02T14:31:16.824Z,15.59
2023-05-02T14:36:08.952Z,16.54
2023-05-02T14:41:02.789Z,17.52
2023-05-02T14:45:54.672Z,14.48
2023-05-02T14:50:46.495Z,15.08
2023-05-02T14:55:39.570Z,15.55
2023-05-02T15:00:34.815Z,13.45
2023-05-02T15:05:26.763Z,15.89
2023-05-02T15:10:18.593Z,14.75
2023-05-02T15:15:11.354Z,15.81
2023-05-02T15:20:04.744Z,15.00
2023-05-02T15:24:56.943Z,15.66
2023-05-02T15:29:48.726Z,15.02
2023-05-02T15:34:40.575Z,15.05
2023-05-02T15:39:32.637Z,13.91
2023-05-02T15:44:26.419Z,14.85
2023-05-02T15:49:18.236Z,14.82
2023-05-02T15:54:09.945Z,15.05
2023-05-02T15:59:01.811Z,13.92
2023-05-02T16:03:53.618Z,15.36
2023-05-02T16:08:45.507Z,14.92
2023-05-02T16:13:37.420Z,16.23
2023-05-02T16:18:29.213Z,13.93
2023-05-02T16:23:22.162Z,14.18
2023-05-02T16:28:13.935Z,15.78
2023-05-02T16:33:05.852Z,14.73
2023-05-02T16:37:57.608Z,14.39
2023-05-02T16:42:49.316Z,14.10
2023-05-02T16:47:41.179Z,15.32
2023-05-02T16:52:33.111Z,13.98
2023-05-02T16:57:24.851Z,13.62
2023-05-02T17:02:17.927Z,14.44
2023-05-02T17:07:12.166Z,12.55
2023-05-02T17:12:04.420Z,14.28
2023-05-02T17:28:57.562Z,12.88
2023-05-02T17:33:49.302Z,13.19
2023-05-02T17:38:42.008Z,12.07
2023-05-02T17:43:33.771Z,12.36
2023-05-02T17:48:25.585Z,9.91
2023-05-02T17:53:17.398Z,12.67
2023-05-02T17:58:09.272Z,11.20
2023-05-02T18:03:01.047Z,11.96
2023-05-02T18:07:53.256Z,10.89
2023-05-02T18:12:45.061Z,11.50
2023-05-02T18:17:39.712Z,12.53
2023-05-02T18:22:32.557Z,11.65
2023-05-02T18:27:25.533Z,10.34
2023-05-02T18:32:17.252Z,10.81
2023-05-02T18:37:09.792Z,9.94
2023-05-02T18:42:03.295Z,10.25
2023-05-02T18:46:55.042Z,10.85
2023-05-02T18:51:46.923Z,10.15
2023-05-02T18:56:41.578Z,8.97
2023-05-02T19:01:33.478Z,11.15
2023-05-02T19:06:26.204Z,8.36
2023-05-02T19:11:19.562Z,9.59
2023-05-02T19:16:13.667Z,10.26
2023-05-02T19:21:13.806Z,10.04
2023-05-02T19:26:10.730Z,8.82
2023-05-02T19:31:07.903Z,8.48
2023-05-02T19:35:59.600Z,10.21
2023-05-02T19:40:51.317Z,8.31
2023-05-02T19:45:43.140Z,9.25
2023-05-02T19:50:34.831Z,7.69
2023-05-02T19:55:26.510Z,8.56
2023-05-02T20:00:18.512Z,8.39
2023-05-02T20:05:10.509Z,9.96
2023-05-02T20:10:02.500Z,9.79
2023-05-02T20:14:54.856Z,9.15
2023-05-02T20:19:46.572Z,7.19
2023-05-02T20:24:38.295Z,9.25
2023-05-02T20:29:30.032Z,6.03
2023-05-02T20:34:22.105Z,8.81
2023-05-02T20:39:14.323Z,7.36
2023-05-02T20:44:06.385Z,7.95
2023-05-02T20:48:59.416Z,8.41
2023-05-02T20:53:51.436Z,7.11
2023-05-02T20:58:43.354Z,8.45
2023-05-02T21:03:39.238Z,8.13
2023-05-02T21:08:31.069Z,8.19
2023-05-02T21:13:22.952Z,7.33
2023-05-02T21:18:14.705Z,8.82
2023-05-02T21:23:06.576Z,7.27
2023-05-02T21:27:58.425Z,6.39
2023-05-02T21:32:50.524Z,7.13
2023-05-02T21:37:42.280Z,6.42
2023-05-02T21:42:34.552Z,7.53
2023-05-02T21:47:26.350Z,7.90
2023-05-02T21:52:18.059Z,6.21
2023-05-02T21:57:09.730Z,7.85
2023-05-02T22:02:01.438Z,5.56
2023-05-02T22:06:53.468Z,6.31
2023-05-02T22:11:45.207Z,5.75
2023-05-02T22:16:37.582Z,7.56
2023-05-02T22:21:29.984Z,7.21
2023-05-02T22:26:22.872Z,5.68
2023-05-02T22:31:15.619Z,5.85
2023-05-02T22:36:08.712Z,6.21
2023-05-02T22:41:00.909Z,5.45
2023-05-02T22:45:52.921Z,5.35
2023-05-02T22:50:48.725Z,4.00
2023-05-02T22:55:40.514Z,5.26
2023-05-02T23:13:26.866Z,4.76
2023-05-02T23:18:24.918Z,5.00
2023-05-02T23:23:19.498Z,4.98
2023-05-02T23:28:12.691Z,3.65
2023-05-02T23:33:05.126Z,6.86
2023-05-02T23:38:00.978Z,6.70
2023-05-02T23:42:54.289Z,4.00
2023-05-02T23:47:47.045Z,4.18
2023-05-02T23:52:40.063Z,6.71
2023-05-02T23:57:31.958Z,3.70
